• Join FlightAware (Why Join?)
  • Login
  • US Flag 
05:10PM EST


 

Airport Tracker/Info


-or-


 

Live Flight TrackerFlight Track Log ✈ N762NC ✈ 19-Oct-2013 ✈ KILM - KATL

Flight Track Log - Related Links

Times and Time Zones

All times are in EDT time to prevent confusion due to time zone crossing. See the N762NC flight status page for this flight to view local times or setup timezone preferences in your user account.

Time Position Orientation Groundspeed Altitude Reporting Facility
EDT Latitude Longitude Course Direction KTS MPH feet Rate Location/Type
06:36AM 34.3517 -77.9214 284° West 187 215 3,800  Level Washington Center
06:37AM 34.2386 -78.3476 270° West  Level Estimated
06:37AM 34.3417 -78.0017 261° West 203 234 6,200  Level Washington Center
06:38AM 34.2304 -78.4588 270° West  Level Estimated
06:38AM 34.3419 -78.0844 270° West 230 265 8,400  Level Washington Center
06:39AM 34.2220 -78.5700 265° West  Level Estimated
06:40AM 34.2452 -78.6817 284° West  Level FlightAware Approximate
06:40AM 34.3344 -78.2308 266° West 266 306 11,000  Level Jacksonville Center
06:41AM 34.3175 -78.3397 259° West 301 346 12,200 1,740 Climbing Jacksonville Center
06:42AM 34.3047 -78.4508 262° West 330 380 14,500 2,100 Climbing Jacksonville Center
06:43AM 34.3025 -78.5642 269° West 344 396 16,400 1,800 Climbing Jacksonville Center
06:44AM 34.3003 -78.6800 269° West 344 396 18,200 1,620 Climbing Jacksonville Center
06:45AM 34.2850 -78.7936 261° West 349 402 19,700 1,440 Climbing Jacksonville Center
06:46AM 34.2700 -78.9100 261° West 349 402 21,100 1,440 Climbing Jacksonville Center
06:47AM 34.2592 -79.0286 264° West 354 407 22,600 1,260 Climbing Jacksonville Center
06:48AM 34.2503 -79.1494 265° West 354 407 23,700 1,080 Climbing Jacksonville Center
06:49AM 34.2497 -79.2753 270° West 364 419 24,800 1,020 Climbing Jacksonville Center
06:50AM 34.2514 -79.4006 271° West 370 426 25,800 1,320 Climbing Jacksonville Center
06:51AM 34.2464 -79.5239 267° West 370 426 27,500 1,320 Climbing Jacksonville Center
06:52AM 34.2492 -79.6319 272° West 365 420 28,500 960 Climbing Jacksonville Center
06:53AM 34.2292 -79.7506 259° West 365 420 29,500 720 Climbing Jacksonville Center
06:54AM 34.1986 -79.8647 252° West 365 420 30,000 180 Climbing Jacksonville Center
06:55AM 34.1639 -79.9839 251° West 371 427 29,900 -60 Descending Jacksonville Center
06:56AM 34.1269 -80.1056 250° West 376 433 29,900  Level Jacksonville Center
06:57AM 34.1006 -80.2292 256° West 382 440 29,900  Level Jacksonville Center
06:58AM 34.0758 -80.3553 257° West 388 447 29,900  Level Jacksonville Center
06:59AM 34.0553 -80.4789 259° West 382 440 29,900  Level Jacksonville Center
07:00AM 34.0411 -80.6044 262° West 382 440 29,900  Level Jacksonville Center
07:01AM 34.0286 -80.7325 263° West 382 440 29,900  Level Jacksonville Center
07:02AM 34.0142 -80.8733 263° West 389 448 29,900  Level Jacksonville Center
07:03AM 34.0017 -80.9989 263° West 389 448 29,900  Level Jacksonville Center
07:05AM 33.9461 -81.2392 254° West 374 430 30,000  Climbing Atlanta Center
07:06AM 33.9069 -81.3631 249° West 388 447 30,000  Level Atlanta Center
07:07AM 33.8700 -81.4819 250° West 393 452 30,000  Level Atlanta Center
07:08AM 33.8328 -81.6031 250° West 393 452 30,000  Level Atlanta Center
07:09AM 33.7975 -81.7264 251° West 393 452 30,000  Level Atlanta Center
07:10AM 33.7664 -81.8522 253° West 393 452 30,000  Level Atlanta Center
07:11AM 33.7414 -81.9803 257° West 393 452 30,000  Level Atlanta Center
07:12AM 33.7206 -82.1083 259° West 393 452 30,000  Level Atlanta Center
07:13AM 33.6808 -82.2314 249° West 393 452 30,000 -240 Level Atlanta Center
07:14AM 33.6303 -82.3522 243° Southwest 414 476 29,600 -720 Descending Atlanta Center
07:15AM 33.5714 -82.4681 239° Southwest 413 475 28,600 -1,020 Descending Atlanta Center
07:16AM 33.5103 -82.5889 239° Southwest 419 482 27,600 -960 Descending Atlanta Center
07:17AM 33.4656 -82.7142 247° West 414 476 26,700 -900 Descending Atlanta Center
07:18AM 33.4231 -82.8442 249° West 419 482 25,800 -900 Descending Atlanta Center
07:19AM 33.3847 -82.9814 252° West 405 466 24,900 -780 Descending Atlanta Center
07:20AM 33.3336 -83.0964 242° Southwest 399 459 24,300 -480 Descending Atlanta Center
07:21AM 33.2864 -83.2089 243° Southwest 388 447 24,000 -780 Descending Atlanta Center
07:22AM 33.2389 -83.3161 242° Southwest 378 435 22,800 -2,040 Descending Atlanta Center
07:23AM 33.1917 -83.4256 243° Southwest 373 429 20,000 -2,940 Descending Atlanta Center
07:24AM 33.1544 -83.5228 245° Southwest 347 399 17,000 -3,000 Descending Atlanta Center
07:25AM 33.1194 -83.6247 248° West 341 392 14,000 -2,160 Descending Atlanta Center
07:26AM 33.1781 -83.7161 307° West 311 358 12,700 -960 Descending Atlanta Center
07:27AM 33.2408 -83.7906 315° West 315 362 12,100 -900 Descending Atlanta Center
07:28AM 33.2806 -83.8575 305° West 299 344 11,000 -1,500 Descending Atlanta Center
07:29AM 33.3119 -83.9369 295° West 273 314 9,200 -1,440 Descending Atlanta Center
07:30AM 33.3517 -84.0064 304° West 253 291 8,200 -1,500 Descending Atlanta Center
07:31AM 33.4311 -84.0239 350° North 246 283 6,300 -1,740 Descending Atlanta Center
07:32AM 33.5083 -84.0514 343° North 264 304 4,800 -1,320 Descending Atlanta Center
07:33AM 33.5647 -84.1036 322° Northwest 259 298 3,700 -900 Descending Atlanta Center
07:34AM 33.6000 -84.1667 304° West 219 252 3,100 -420 Descending Atlanta TRACON
07:35AM 33.6167 -84.2167 292° West 184 212 2,900 -180 Descending Atlanta TRACON
07:36AM 33.6333 -84.2833 287° West 167 192 2,800 -240 Descending Atlanta TRACON
07:37AM 33.6333 -84.3333 270° West 156 180 2,400 -600 Descending Atlanta TRACON
07:38AM 33.6333 -84.3833 270° West 134 154 1,600 -840 Descending Atlanta TRACON